sensor_id;sensor_type;location;lat;lon;timestamp;temperature;humidity
75819;DHT22;64453;51.944;9.796;2023-05-08T00:00:18;13.40;54.20
75819;DHT22;64453;51.944;9.796;2023-05-08T00:02:47;13.50;53.90
75819;DHT22;64453;51.944;9.796;2023-05-08T00:05:15;13.40;53.80
75819;DHT22;64453;51.944;9.796;2023-05-08T00:07:44;13.20;54.40
75819;DHT22;64453;51.944;9.796;2023-05-08T00:10:12;13.30;54.60
75819;DHT22;64453;51.944;9.796;2023-05-08T00:12:40;13.50;54.00
75819;DHT22;64453;51.944;9.796;2023-05-08T00:15:08;13.40;53.70
75819;DHT22;64453;51.944;9.796;2023-05-08T00:17:36;13.20;54.10
75819;DHT22;64453;51.944;9.796;2023-05-08T00:20:04;13.30;54.40
75819;DHT22;64453;51.944;9.796;2023-05-08T00:22:33;13.10;54.90
75819;DHT22;64453;51.944;9.796;2023-05-08T00:25:02;13.00;55.00
75819;DHT22;64453;51.944;9.796;2023-05-08T00:27:30;13.00;55.40
75819;DHT22;64453;51.944;9.796;2023-05-08T00:29:57;12.80;55.30
75819;DHT22;64453;51.944;9.796;2023-05-08T00:32:24;13.00;55.30
75819;DHT22;64453;51.944;9.796;2023-05-08T00:34:51;13.40;55.20
75819;DHT22;64453;51.944;9.796;2023-05-08T00:37:19;13.40;54.70
75819;DHT22;64453;51.944;9.796;2023-05-08T00:39:47;13.70;54.30
75819;DHT22;64453;51.944;9.796;2023-05-08T00:42:15;13.60;53.70
75819;DHT22;64453;51.944;9.796;2023-05-08T00:44:43;13.90;53.90
75819;DHT22;64453;51.944;9.796;2023-05-08T00:47:10;13.90;53.70
75819;DHT22;64453;51.944;9.796;2023-05-08T00:49:37;13.80;53.90
75819;DHT22;64453;51.944;9.796;2023-05-08T00:52:05;13.90;53.80
75819;DHT22;64453;51.944;9.796;2023-05-08T00:54:34;14.00;53.60
75819;DHT22;64453;51.944;9.796;2023-05-08T00:57:02;13.90;53.40
75819;DHT22;64453;51.944;9.796;2023-05-08T00:59:32;13.70;54.00
75819;DHT22;64453;51.944;9.796;2023-05-08T01:01:59;13.90;53.90
75819;DHT22;64453;51.944;9.796;2023-05-08T01:04:29;13.90;53.90
75819;DHT22;64453;51.944;9.796;2023-05-08T01:06:56;14.10;54.30
75819;DHT22;64453;51.944;9.796;2023-05-08T01:09:23;14.10;53.40
75819;DHT22;64453;51.944;9.796;2023-05-08T01:11:58;14.00;53.50
75819;DHT22;64453;51.944;9.796;2023-05-08T01:14:40;13.80;53.50
75819;DHT22;64453;51.944;9.796;2023-05-08T01:17:32;14.00;53.90
75819;DHT22;64453;51.944;9.796;2023-05-08T01:20:18;13.80;53.40
75819;DHT22;64453;51.944;9.796;2023-05-08T01:23:20;13.80;53.60
75819;DHT22;64453;51.944;9.796;2023-05-08T01:29:35;13.70;53.90
75819;DHT22;64453;51.944;9.796;2023-05-08T01:32:26;13.90;53.60
75819;DHT22;64453;51.944;9.796;2023-05-08T01:34:59;13.50;54.00
75819;DHT22;64453;51.944;9.796;2023-05-08T01:37:36;13.70;53.90
75819;DHT22;64453;51.944;9.796;2023-05-08T01:40:14;13.40;54.10
75819;DHT22;64453;51.944;9.796;2023-05-08T01:42:48;13.30;54.00
75819;DHT22;64453;51.944;9.796;2023-05-08T01:45:20;13.60;54.10
75819;DHT22;64453;51.944;9.796;2023-05-08T01:48:08;13.50;53.70
75819;DHT22;64453;51.944;9.796;2023-05-08T01:50:41;13.60;54.30
75819;DHT22;64453;51.944;9.796;2023-05-08T01:53:16;13.40;53.30
75819;DHT22;64453;51.944;9.796;2023-05-08T01:55:49;13.60;54.00
75819;DHT22;64453;51.944;9.796;2023-05-08T01:58:22;13.50;53.80
75819;DHT22;64453;51.944;9.796;2023-05-08T02:00:50;13.50;53.80
75819;DHT22;64453;51.944;9.796;2023-05-08T02:03:20;13.80;53.70
75819;DHT22;64453;51.944;9.796;2023-05-08T02:05:53;13.30;53.20
75819;DHT22;64453;51.944;9.796;2023-05-08T02:08:23;13.00;54.50
75819;DHT22;64453;51.944;9.796;2023-05-08T02:10:51;13.00;54.50
75819;DHT22;64453;51.944;9.796;2023-05-08T02:13:20;12.90;55.10
75819;DHT22;64453;51.944;9.796;2023-05-08T02:15:49;13.20;54.60
75819;DHT22;64453;51.944;9.796;2023-05-08T02:18:20;12.90;54.60
75819;DHT22;64453;51.944;9.796;2023-05-08T02:20:53;13.00;55.00
75819;DHT22;64453;51.944;9.796;2023-05-08T02:23:24;13.20;54.90
75819;DHT22;64453;51.944;9.796;2023-05-08T02:25:52;12.80;55.30
75819;DHT22;64453;51.944;9.796;2023-05-08T02:28:23;12.90;55.10
75819;DHT22;64453;51.944;9.796;2023-05-08T02:30:51;12.80;55.40
75819;DHT22;64453;51.944;9.796;2023-05-08T02:33:20;12.90;55.10
75819;DHT22;64453;51.944;9.796;2023-05-08T02:35:49;12.60;55.50
75819;DHT22;64453;51.944;9.796;2023-05-08T02:38:19;12.70;55.10
75819;DHT22;64453;51.944;9.796;2023-05-08T02:40:52;12.80;55.10
75819;DHT22;64453;51.944;9.796;2023-05-08T02:43:22;13.00;55.00
75819;DHT22;64453;51.944;9.796;2023-05-08T02:45:56;12.80;54.60
75819;DHT22;64453;51.944;9.796;2023-05-08T02:48:33;12.40;55.40
75819;DHT22;64453;51.944;9.796;2023-05-08T02:51:14;12.60;55.70
75819;DHT22;64453;51.944;9.796;2023-05-08T02:53:49;12.90;55.10
75819;DHT22;64453;51.944;9.796;2023-05-08T02:56:31;12.80;55.10
75819;DHT22;64453;51.944;9.796;2023-05-08T02:59:08;12.70;54.40
75819;DHT22;64453;51.944;9.796;2023-05-08T03:01:46;12.40;55.00
75819;DHT22;64453;51.944;9.796;2023-05-08T03:04:24;12.50;54.90
75819;DHT22;64453;51.944;9.796;2023-05-08T03:06:54;12.50;55.20
75819;DHT22;64453;51.944;9.796;2023-05-08T03:09:24;12.70;55.20
75819;DHT22;64453;51.944;9.796;2023-05-08T03:12:00;12.90;54.80
75819;DHT22;64453;51.944;9.796;2023-05-08T03:14:31;12.90;54.60
75819;DHT22;64453;51.944;9.796;2023-05-08T03:17:05;12.80;54.40
75819;DHT22;64453;51.944;9.796;2023-05-08T03:19:41;12.80;55.20
75819;DHT22;64453;51.944;9.796;2023-05-08T03:22:10;12.80;54.80
75819;DHT22;64453;51.944;9.796;2023-05-08T03:24:39;13.00;54.60
75819;DHT22;64453;51.944;9.796;2023-05-08T03:27:09;13.00;54.60
75819;DHT22;64453;51.944;9.796;2023-05-08T03:29:37;13.20;54.40
75819;DHT22;64453;51.944;9.796;2023-05-08T03:32:05;12.80;53.70
75819;DHT22;64453;51.944;9.796;2023-05-08T03:34:33;12.60;55.10
75819;DHT22;64453;51.944;9.796;2023-05-08T03:37:05;12.60;54.90
75819;DHT22;64453;51.944;9.796;2023-05-08T03:39:33;12.60;54.90
75819;DHT22;64453;51.944;9.796;2023-05-08T03:42:01;12.50;55.00
75819;DHT22;64453;51.944;9.796;2023-05-08T03:44:31;12.70;55.10
75819;DHT22;64453;51.944;9.796;2023-05-08T03:46:58;12.80;54.80
75819;DHT22;64453;51.944;9.796;2023-05-08T03:49:28;12.80;55.10
75819;DHT22;64453;51.944;9.796;2023-05-08T03:52:01;12.90;54.80
75819;DHT22;64453;51.944;9.796;2023-05-08T03:54:28;13.10;54.80
75819;DHT22;64453;51.944;9.796;2023-05-08T03:56:55;13.10;54.70
75819;DHT22;64453;51.944;9.796;2023-05-08T03:59:27;13.20;54.60
75819;DHT22;64453;51.944;9.796;2023-05-08T04:02:07;13.30;54.60
75819;DHT22;64453;51.944;9.796;2023-05-08T04:04:39;13.20;54.30
75819;DHT22;64453;51.944;9.796;2023-05-08T04:07:13;13.20;54.50
75819;DHT22;64453;51.944;9.796;2023-05-08T04:09:48;13.40;54.90
75819;DHT22;64453;51.944;9.796;2023-05-08T04:12:35;13.30;55.00
75819;DHT22;64453;51.944;9.796;2023-05-08T04:15:09;13.20;54.70
75819;DHT22;64453;51.944;9.796;2023-05-08T04:17:42;13.40;55.00
75819;DHT22;64453;51.944;9.796;2023-05-08T04:20:17;13.50;54.80
75819;DHT22;64453;51.944;9.796;2023-05-08T04:22:49;13.50;54.70
75819;DHT22;64453;51.944;9.796;2023-05-08T04:25:19;13.50;54.90
75819;DHT22;64453;51.944;9.796;2023-05-08T04:27:47;13.60;55.00
75819;DHT22;64453;51.944;9.796;2023-05-08T04:30:16;13.60;54.70
75819;DHT22;64453;51.944;9.796;2023-05-08T04:32:43;13.80;54.90
75819;DHT22;64453;51.944;9.796;2023-05-08T04:35:11;13.70;54.90
75819;DHT22;64453;51.944;9.796;2023-05-08T04:37:40;13.80;55.20
75819;DHT22;64453;51.944;9.796;2023-05-08T04:40:10;13.70;55.50
75819;DHT22;64453;51.944;9.796;2023-05-08T04:42:38;13.80;55.70
75819;DHT22;64453;51.944;9.796;2023-05-08T04:45:08;13.60;55.40
75819;DHT22;64453;51.944;9.796;2023-05-08T04:47:36;13.80;55.70
75819;DHT22;64453;51.944;9.796;2023-05-08T04:50:04;13.90;55.70
75819;DHT22;64453;51.944;9.796;2023-05-08T04:52:32;13.80;55.50
75819;DHT22;64453;51.944;9.796;2023-05-08T04:54:59;13.90;55.70
75819;DHT22;64453;51.944;9.796;2023-05-08T04:57:27;14.00;56.00
75819;DHT22;64453;51.944;9.796;2023-05-08T04:59:54;14.00;55.50
75819;DHT22;64453;51.944;9.796;2023-05-08T05:02:22;14.10;55.50
75819;DHT22;64453;51.944;9.796;2023-05-08T05:04:51;14.10;54.80
75819;DHT22;64453;51.944;9.796;2023-05-08T05:07:18;14.10;55.10
75819;DHT22;64453;51.944;9.796;2023-05-08T05:09:45;14.20;55.50
75819;DHT22;64453;51.944;9.796;2023-05-08T05:12:12;14.20;55.70
75819;DHT22;64453;51.944;9.796;2023-05-08T05:14:41;14.20;55.40
75819;DHT22;64453;51.944;9.796;2023-05-08T05:17:08;14.20;55.10
75819;DHT22;64453;51.944;9.796;2023-05-08T05:19:35;14.30;54.70
75819;DHT22;64453;51.944;9.796;2023-05-08T05:22:02;14.30;54.50
75819;DHT22;64453;51.944;9.796;2023-05-08T05:24:30;14.40;54.70
75819;DHT22;64453;51.944;9.796;2023-05-08T05:26:57;14.40;54.60
75819;DHT22;64453;51.944;9.796;2023-05-08T05:29:24;14.50;54.50
75819;DHT22;64453;51.944;9.796;2023-05-08T05:31:54;14.30;54.50
75819;DHT22;64453;51.944;9.796;2023-05-08T05:34:21;14.40;54.90
75819;DHT22;64453;51.944;9.796;2023-05-08T05:36:48;14.50;54.50
75819;DHT22;64453;51.944;9.796;2023-05-08T05:39:16;14.50;54.30
75819;DHT22;64453;51.944;9.796;2023-05-08T05:41:43;14.50;54.60
75819;DHT22;64453;51.944;9.796;2023-05-08T05:44:10;14.50;54.60
75819;DHT22;64453;51.944;9.796;2023-05-08T05:46:37;14.60;54.40
75819;DHT22;64453;51.944;9.796;2023-05-08T05:49:06;14.60;54.40
75819;DHT22;64453;51.944;9.796;2023-05-08T05:51:33;14.50;54.20
75819;DHT22;64453;51.944;9.796;2023-05-08T05:54:00;14.50;54.20
75819;DHT22;64453;51.944;9.796;2023-05-08T05:56:27;14.60;54.60
75819;DHT22;64453;51.944;9.796;2023-05-08T05:58:54;14.50;54.60
75819;DHT22;64453;51.944;9.796;2023-05-08T06:01:22;14.60;54.30
75819;DHT22;64453;51.944;9.796;2023-05-08T06:03:50;14.50;54.00
75819;DHT22;64453;51.944;9.796;2023-05-08T06:06:19;14.70;54.30
75819;DHT22;64453;51.944;9.796;2023-05-08T06:08:46;14.60;54.20
75819;DHT22;64453;51.944;9.796;2023-05-08T06:11:13;14.60;54.00
75819;DHT22;64453;51.944;9.796;2023-05-08T06:13:41;14.60;54.10
75819;DHT22;64453;51.944;9.796;2023-05-08T06:16:08;14.70;54.00
75819;DHT22;64453;51.944;9.796;2023-05-08T06:18:35;14.40;53.70
75819;DHT22;64453;51.944;9.796;2023-05-08T06:21:03;14.50;54.50
75819;DHT22;64453;51.944;9.796;2023-05-08T06:23:32;14.50;54.40
75819;DHT22;64453;51.944;9.796;2023-05-08T06:26:00;14.50;54.00
75819;DHT22;64453;51.944;9.796;2023-05-08T06:28:27;14.60;54.20
75819;DHT22;64453;51.944;9.796;2023-05-08T06:30:54;14.70;54.10
75819;DHT22;64453;51.944;9.796;2023-05-08T06:33:21;14.60;54.10
75819;DHT22;64453;51.944;9.796;2023-05-08T06:35:48;14.70;54.70
75819;DHT22;64453;51.944;9.796;2023-05-08T06:38:16;14.80;55.00
75819;DHT22;64453;51.944;9.796;2023-05-08T06:40:45;14.80;55.00
75819;DHT22;64453;51.944;9.796;2023-05-08T06:43:14;14.80;55.10
75819;DHT22;64453;51.944;9.796;2023-05-08T06:45:42;14.90;55.20
75819;DHT22;64453;51.944;9.796;2023-05-08T06:48:10;14.90;55.20
75819;DHT22;64453;51.944;9.796;2023-05-08T06:50:37;15.00;55.30
75819;DHT22;64453;51.944;9.796;2023-05-08T06:53:05;15.00;55.30
75819;DHT22;64453;51.944;9.796;2023-05-08T06:55:33;15.00;55.40
75819;DHT22;64453;51.944;9.796;2023-05-08T06:58:02;15.10;55.20
75819;DHT22;64453;51.944;9.796;2023-05-08T07:00:29;15.10;54.80
75819;DHT22;64453;51.944;9.796;2023-05-08T07:02:56;15.10;54.90
75819;DHT22;64453;51.944;9.796;2023-05-08T07:05:23;15.10;54.70
75819;DHT22;64453;51.944;9.796;2023-05-08T07:07:50;15.10;54.50
75819;DHT22;64453;51.944;9.796;2023-05-08T07:10:18;15.20;54.60
75819;DHT22;64453;51.944;9.796;2023-05-08T07:12:47;15.20;54.40
75819;DHT22;64453;51.944;9.796;2023-05-08T07:15:16;15.20;54.50
75819;DHT22;64453;51.944;9.796;2023-05-08T07:17:44;15.10;55.10
75819;DHT22;64453;51.944;9.796;2023-05-08T07:20:11;15.20;55.10
75819;DHT22;64453;51.944;9.796;2023-05-08T07:22:39;15.20;55.40
75819;DHT22;64453;51.944;9.796;2023-05-08T07:25:07;15.20;55.50
75819;DHT22;64453;51.944;9.796;2023-05-08T07:27:36;15.20;55.90
75819;DHT22;64453;51.944;9.796;2023-05-08T07:30:03;15.20;56.30
75819;DHT22;64453;51.944;9.796;2023-05-08T07:32:33;15.30;56.80
75819;DHT22;64453;51.944;9.796;2023-05-08T07:35:03;15.30;56.00
75819;DHT22;64453;51.944;9.796;2023-05-08T07:37:32;15.40;56.50
75819;DHT22;64453;51.944;9.796;2023-05-08T07:40:00;15.40;56.80
75819;DHT22;64453;51.944;9.796;2023-05-08T07:42:27;15.40;57.10
75819;DHT22;64453;51.944;9.796;2023-05-08T07:44:54;15.50;56.70
75819;DHT22;64453;51.944;9.796;2023-05-08T07:47:21;15.40;56.80
75819;DHT22;64453;51.944;9.796;2023-05-08T07:49:50;15.50;57.00
75819;DHT22;64453;51.944;9.796;2023-05-08T07:52:17;15.60;57.20
75819;DHT22;64453;51.944;9.796;2023-05-08T07:54:44;15.60;57.50
75819;DHT22;64453;51.944;9.796;2023-05-08T07:57:11;15.60;57.60
75819;DHT22;64453;51.944;9.796;2023-05-08T07:59:38;15.70;57.90
75819;DHT22;64453;51.944;9.796;2023-05-08T08:02:05;15.70;57.70
75819;DHT22;64453;51.944;9.796;2023-05-08T08:04:33;15.70;57.90
75819;DHT22;64453;51.944;9.796;2023-05-08T08:07:01;15.80;58.10
75819;DHT22;64453;51.944;9.796;2023-05-08T08:09:28;15.80;58.30
75819;DHT22;64453;51.944;9.796;2023-05-08T08:11:57;15.80;58.00
75819;DHT22;64453;51.944;9.796;2023-05-08T08:14:24;15.90;58.30
75819;DHT22;64453;51.944;9.796;2023-05-08T08:16:51;15.90;58.00
75819;DHT22;64453;51.944;9.796;2023-05-08T08:19:18;15.90;58.30
75819;DHT22;64453;51.944;9.796;2023-05-08T08:21:46;16.00;58.50
75819;DHT22;64453;51.944;9.796;2023-05-08T08:24:14;16.00;58.90
75819;DHT22;64453;51.944;9.796;2023-05-08T08:26:41;16.10;59.00
75819;DHT22;64453;51.944;9.796;2023-05-08T08:29:08;16.10;58.70
75819;DHT22;64453;51.944;9.796;2023-05-08T08:31:35;16.20;59.40
75819;DHT22;64453;51.944;9.796;2023-05-08T08:34:02;16.20;59.60
75819;DHT22;64453;51.944;9.796;2023-05-08T08:36:29;16.20;59.30
75819;DHT22;64453;51.944;9.796;2023-05-08T08:38:57;16.30;59.40
75819;DHT22;64453;51.944;9.796;2023-05-08T08:41:25;16.30;60.00
75819;DHT22;64453;51.944;9.796;2023-05-08T08:43:53;16.40;59.20
75819;DHT22;64453;51.944;9.796;2023-05-08T08:46:24;16.40;59.60
75819;DHT22;64453;51.944;9.796;2023-05-08T08:48:54;16.40;59.80
75819;DHT22;64453;51.944;9.796;2023-05-08T08:51:25;16.50;59.40
75819;DHT22;64453;51.944;9.796;2023-05-08T08:54:01;16.50;59.10
75819;DHT22;64453;51.944;9.796;2023-05-08T08:56:31;16.50;59.60
75819;DHT22;64453;51.944;9.796;2023-05-08T08:58:59;16.60;59.80
75819;DHT22;64453;51.944;9.796;2023-05-08T09:01:27;16.60;59.20
75819;DHT22;64453;51.944;9.796;2023-05-08T09:03:57;16.70;59.30
75819;DHT22;64453;51.944;9.796;2023-05-08T09:06:24;16.70;59.80
75819;DHT22;64453;51.944;9.796;2023-05-08T09:08:54;16.70;57.80
75819;DHT22;64453;51.944;9.796;2023-05-08T09:11:21;16.80;58.90
75819;DHT22;64453;51.944;9.796;2023-05-08T09:13:50;16.80;58.30
75819;DHT22;64453;51.944;9.796;2023-05-08T09:16:17;16.90;58.40
75819;DHT22;64453;51.944;9.796;2023-05-08T09:18:44;16.90;57.70
75819;DHT22;64453;51.944;9.796;2023-05-08T09:21:11;17.00;57.50
75819;DHT22;64453;51.944;9.796;2023-05-08T09:23:54;17.00;57.90
75819;DHT22;64453;51.944;9.796;2023-05-08T09:26:27;17.00;57.80
75819;DHT22;64453;51.944;9.796;2023-05-08T09:29:14;17.10;58.00
75819;DHT22;64453;51.944;9.796;2023-05-08T09:31:45;17.20;58.20
75819;DHT22;64453;51.944;9.796;2023-05-08T09:34:22;17.20;56.70
75819;DHT22;64453;51.944;9.796;2023-05-08T09:36:51;17.30;57.10
75819;DHT22;64453;51.944;9.796;2023-05-08T09:39:22;17.40;56.50
75819;DHT22;64453;51.944;9.796;2023-05-08T09:41:57;17.40;56.10
75819;DHT22;64453;51.944;9.796;2023-05-08T09:44:26;17.50;55.90
75819;DHT22;64453;51.944;9.796;2023-05-08T09:47:08;17.50;55.40
75819;DHT22;64453;51.944;9.796;2023-05-08T09:49:37;17.60;54.30
75819;DHT22;64453;51.944;9.796;2023-05-08T09:52:06;17.60;56.50
75819;DHT22;64453;51.944;9.796;2023-05-08T09:54:35;17.60;56.60
75819;DHT22;64453;51.944;9.796;2023-05-08T09:57:10;17.70;55.20
75819;DHT22;64453;51.944;9.796;2023-05-08T09:59:40;17.70;55.10
75819;DHT22;64453;51.944;9.796;2023-05-08T10:02:10;17.70;55.00
75819;DHT22;64453;51.944;9.796;2023-05-08T10:04:40;17.80;55.30
75819;DHT22;64453;51.944;9.796;2023-05-08T10:07:07;17.70;55.40
75819;DHT22;64453;51.944;9.796;2023-05-08T10:09:35;17.80;56.20
75819;DHT22;64453;51.944;9.796;2023-05-08T10:12:03;17.80;56.80
75819;DHT22;64453;51.944;9.796;2023-05-08T10:14:31;17.80;55.90
75819;DHT22;64453;51.944;9.796;2023-05-08T10:17:00;17.80;56.80
75819;DHT22;64453;51.944;9.796;2023-05-08T10:19:31;17.90;57.00
75819;DHT22;64453;51.944;9.796;2023-05-08T10:21:59;17.90;55.50
75819;DHT22;64453;51.944;9.796;2023-05-08T10:24:32;18.00;56.10
75819;DHT22;64453;51.944;9.796;2023-05-08T10:27:06;17.90;56.20
75819;DHT22;64453;51.944;9.796;2023-05-08T10:29:41;18.00;56.90
75819;DHT22;64453;51.944;9.796;2023-05-08T10:32:21;18.00;56.70
75819;DHT22;64453;51.944;9.796;2023-05-08T10:34:52;18.10;56.60
75819;DHT22;64453;51.944;9.796;2023-05-08T10:37:20;18.10;56.00
75819;DHT22;64453;51.944;9.796;2023-05-08T10:39:48;18.20;55.50
75819;DHT22;64453;51.944;9.796;2023-05-08T10:42:15;18.20;56.00
75819;DHT22;64453;51.944;9.796;2023-05-08T10:44:43;18.30;56.60
75819;DHT22;64453;51.944;9.796;2023-05-08T10:47:17;18.30;54.00
75819;DHT22;64453;51.944;9.796;2023-05-08T10:49:59;18.40;55.70
75819;DHT22;64453;51.944;9.796;2023-05-08T10:52:34;18.40;55.30
75819;DHT22;64453;51.944;9.796;2023-05-08T10:55:18;18.40;55.50
75819;DHT22;64453;51.944;9.796;2023-05-08T10:58:08;18.50;54.50
75819;DHT22;64453;51.944;9.796;2023-05-08T11:01:09;18.50;55.40
75819;DHT22;64453;51.944;9.796;2023-05-08T11:03:44;18.60;54.60
75819;DHT22;64453;51.944;9.796;2023-05-08T11:06:13;18.70;56.10
75819;DHT22;64453;51.944;9.796;2023-05-08T11:08:48;18.70;56.70
75819;DHT22;64453;51.944;9.796;2023-05-08T11:11:25;18.70;56.10
75819;DHT22;64453;51.944;9.796;2023-05-08T11:13:58;18.80;54.80
75819;DHT22;64453;51.944;9.796;2023-05-08T11:17:06;18.90;55.70
75819;DHT22;64453;51.944;9.796;2023-05-08T11:19:36;18.90;54.60
75819;DHT22;64453;51.944;9.796;2023-05-08T11:22:21;18.90;54.70
75819;DHT22;64453;51.944;9.796;2023-05-08T11:25:03;18.90;55.10
75819;DHT22;64453;51.944;9.796;2023-05-08T11:27:35;19.00;52.90
75819;DHT22;64453;51.944;9.796;2023-05-08T11:30:23;19.00;54.90
75819;DHT22;64453;51.944;9.796;2023-05-08T11:33:13;19.10;54.20
75819;DHT22;64453;51.944;9.796;2023-05-08T11:35:51;19.10;53.70
75819;DHT22;64453;51.944;9.796;2023-05-08T11:38:22;19.20;52.80
75819;DHT22;64453;51.944;9.796;2023-05-08T11:40:56;19.30;51.90
75819;DHT22;64453;51.944;9.796;2023-05-08T11:43:56;19.20;52.50
75819;DHT22;64453;51.944;9.796;2023-05-08T11:46:38;19.20;52.20
75819;DHT22;64453;51.944;9.796;2023-05-08T11:49:10;19.30;53.40
75819;DHT22;64453;51.944;9.796;2023-05-08T11:51:43;19.40;53.50
75819;DHT22;64453;51.944;9.796;2023-05-08T11:54:14;19.40;52.70
75819;DHT22;64453;51.944;9.796;2023-05-08T11:56:45;19.50;53.30
75819;DHT22;64453;51.944;9.796;2023-05-08T11:59:14;19.50;52.80
75819;DHT22;64453;51.944;9.796;2023-05-08T12:01:43;19.60;51.80
75819;DHT22;64453;51.944;9.796;2023-05-08T12:04:12;19.60;51.90
75819;DHT22;64453;51.944;9.796;2023-05-08T12:06:42;19.70;52.80
75819;DHT22;64453;51.944;9.796;2023-05-08T12:09:13;19.80;52.40
75819;DHT22;64453;51.944;9.796;2023-05-08T12:11:44;19.80;51.40
75819;DHT22;64453;51.944;9.796;2023-05-08T12:14:12;19.90;51.20
75819;DHT22;64453;51.944;9.796;2023-05-08T12:16:39;19.90;51.20
75819;DHT22;64453;51.944;9.796;2023-05-08T12:19:09;19.90;49.40
75819;DHT22;64453;51.944;9.796;2023-05-08T12:21:38;19.90;50.80
75819;DHT22;64453;51.944;9.796;2023-05-08T12:24:12;19.90;50.80
75819;DHT22;64453;51.944;9.796;2023-05-08T12:26:47;20.00;51.50
75819;DHT22;64453;51.944;9.796;2023-05-08T12:29:17;20.10;50.50
75819;DHT22;64453;51.944;9.796;2023-05-08T12:31:45;20.30;50.30
75819;DHT22;64453;51.944;9.796;2023-05-08T12:34:14;20.40;49.30
75819;DHT22;64453;51.944;9.796;2023-05-08T12:36:41;20.50;49.00
75819;DHT22;64453;51.944;9.796;2023-05-08T12:39:13;20.50;48.50
75819;DHT22;64453;51.944;9.796;2023-05-08T12:41:45;20.60;47.60
75819;DHT22;64453;51.944;9.796;2023-05-08T12:44:22;20.60;47.10
75819;DHT22;64453;51.944;9.796;2023-05-08T12:46:52;20.60;46.60
75819;DHT22;64453;51.944;9.796;2023-05-08T12:49:25;20.70;47.70
75819;DHT22;64453;51.944;9.796;2023-05-08T12:52:00;20.80;46.60
75819;DHT22;64453;51.944;9.796;2023-05-08T12:54:38;20.90;46.40
75819;DHT22;64453;51.944;9.796;2023-05-08T12:57:08;20.90;46.40
75819;DHT22;64453;51.944;9.796;2023-05-08T12:59:36;21.00;46.30
75819;DHT22;64453;51.944;9.796;2023-05-08T13:02:03;21.10;45.90
75819;DHT22;64453;51.944;9.796;2023-05-08T13:04:37;21.00;46.40
75819;DHT22;64453;51.944;9.796;2023-05-08T13:07:05;21.00;47.10
75819;DHT22;64453;51.944;9.796;2023-05-08T13:09:33;21.00;47.70
75819;DHT22;64453;51.944;9.796;2023-05-08T13:12:01;21.10;46.70
75819;DHT22;64453;51.944;9.796;2023-05-08T13:14:28;21.20;47.50
75819;DHT22;64453;51.944;9.796;2023-05-08T13:16:55;21.20;46.50
75819;DHT22;64453;51.944;9.796;2023-05-08T13:19:22;21.30;46.70
75819;DHT22;64453;51.944;9.796;2023-05-08T13:21:52;21.40;46.90
75819;DHT22;64453;51.944;9.796;2023-05-08T13:24:22;21.50;46.20
75819;DHT22;64453;51.944;9.796;2023-05-08T13:26:51;21.60;46.10
75819;DHT22;64453;51.944;9.796;2023-05-08T13:29:19;21.60;45.80
75819;DHT22;64453;51.944;9.796;2023-05-08T13:31:46;21.70;46.30
75819;DHT22;64453;51.944;9.796;2023-05-08T13:34:15;21.70;45.80
75819;DHT22;64453;51.944;9.796;2023-05-08T13:36:42;21.70;46.20
75819;DHT22;64453;51.944;9.796;2023-05-08T13:39:09;21.70;46.70
75819;DHT22;64453;51.944;9.796;2023-05-08T13:41:36;21.80;45.90
75819;DHT22;64453;51.944;9.796;2023-05-08T13:44:05;21.80;46.20
75819;DHT22;64453;51.944;9.796;2023-05-08T13:46:33;21.90;46.60
75819;DHT22;64453;51.944;9.796;2023-05-08T13:49:00;21.90;46.30
75819;DHT22;64453;51.944;9.796;2023-05-08T13:51:27;22.00;45.90
75819;DHT22;64453;51.944;9.796;2023-05-08T13:53:54;22.00;46.40
75819;DHT22;64453;51.944;9.796;2023-05-08T13:56:24;22.00;46.30
75819;DHT22;64453;51.944;9.796;2023-05-08T13:58:51;22.10;45.90
75819;DHT22;64453;51.944;9.796;2023-05-08T14:01:20;22.00;45.20
75819;DHT22;64453;51.944;9.796;2023-05-08T14:03:47;22.20;45.90
75819;DHT22;64453;51.944;9.796;2023-05-08T14:06:16;22.20;46.00
75819;DHT22;64453;51.944;9.796;2023-05-08T14:08:45;22.40;45.70
75819;DHT22;64453;51.944;9.796;2023-05-08T14:11:12;22.40;45.60
75819;DHT22;64453;51.944;9.796;2023-05-08T14:13:39;22.40;46.00
75819;DHT22;64453;51.944;9.796;2023-05-08T14:16:07;22.50;46.20
75819;DHT22;64453;51.944;9.796;2023-05-08T14:18:41;22.60;45.90
75819;DHT22;64453;51.944;9.796;2023-05-08T14:21:08;22.60;45.30
75819;DHT22;64453;51.944;9.796;2023-05-08T14:23:35;22.60;44.50
75819;DHT22;64453;51.944;9.796;2023-05-08T14:26:03;22.70;43.10
75819;DHT22;64453;51.944;9.796;2023-05-08T14:28:30;22.60;45.30
75819;DHT22;64453;51.944;9.796;2023-05-08T14:30:59;22.70;45.20
75819;DHT22;64453;51.944;9.796;2023-05-08T14:33:27;22.80;44.40
75819;DHT22;64453;51.944;9.796;2023-05-08T14:35:56;22.90;44.30
75819;DHT22;64453;51.944;9.796;2023-05-08T14:38:25;22.80;44.50
75819;DHT22;64453;51.944;9.796;2023-05-08T14:40:53;22.90;43.30
75819;DHT22;64453;51.944;9.796;2023-05-08T14:43:21;23.00;43.40
75819;DHT22;64453;51.944;9.796;2023-05-08T14:45:49;23.10;43.00
75819;DHT22;64453;51.944;9.796;2023-05-08T14:48:17;23.10;43.80
75819;DHT22;64453;51.944;9.796;2023-05-08T14:50:45;23.10;43.00
75819;DHT22;64453;51.944;9.796;2023-05-08T14:53:13;23.30;43.00
75819;DHT22;64453;51.944;9.796;2023-05-08T14:55:41;23.20;42.90
75819;DHT22;64453;51.944;9.796;2023-05-08T14:58:08;23.20;42.70
75819;DHT22;64453;51.944;9.796;2023-05-08T15:00:36;23.20;42.40
75819;DHT22;64453;51.944;9.796;2023-05-08T15:03:04;23.20;42.70
75819;DHT22;64453;51.944;9.796;2023-05-08T15:05:32;23.30;42.90
75819;DHT22;64453;51.944;9.796;2023-05-08T15:08:00;23.20;42.90
75819;DHT22;64453;51.944;9.796;2023-05-08T15:10:29;23.30;43.60
75819;DHT22;64453;51.944;9.796;2023-05-08T15:12:56;23.40;42.70
75819;DHT22;64453;51.944;9.796;2023-05-08T15:15:23;23.70;42.20
75819;DHT22;64453;51.944;9.796;2023-05-08T15:17:51;23.90;41.50
75819;DHT22;64453;51.944;9.796;2023-05-08T15:20:18;24.40;40.60
75819;DHT22;64453;51.944;9.796;2023-05-08T15:22:46;25.60;41.40
75819;DHT22;64453;51.944;9.796;2023-05-08T15:25:13;27.10;37.70
75819;DHT22;64453;51.944;9.796;2023-05-08T15:27:42;28.40;35.90
75819;DHT22;64453;51.944;9.796;2023-05-08T15:30:10;29.20;33.50
75819;DHT22;64453;51.944;9.796;2023-05-08T15:32:38;29.60;33.30
75819;DHT22;64453;51.944;9.796;2023-05-08T15:35:08;29.60;31.60
75819;DHT22;64453;51.944;9.796;2023-05-08T15:37:35;29.50;31.60
75819;DHT22;64453;51.944;9.796;2023-05-08T15:40:04;29.30;32.20
75819;DHT22;64453;51.944;9.796;2023-05-08T15:42:32;28.80;31.10
75819;DHT22;64453;51.944;9.796;2023-05-08T15:45:01;28.40;31.70
75819;DHT22;64453;51.944;9.796;2023-05-08T15:47:29;28.10;31.90
75819;DHT22;64453;51.944;9.796;2023-05-08T15:49:56;27.80;32.80
75819;DHT22;64453;51.944;9.796;2023-05-08T15:52:23;27.80;33.50